sensor_id;sensor_type;location;lat;lon;timestamp;P1;durP1;ratioP1;P2;durP2;ratioP2
7519;SDS011;3801;48.876;10.184;2022-08-19T00:03:59;18.70;;;12.77;;
7519;SDS011;3801;48.876;10.184;2022-08-19T00:09:04;15.77;;;12.40;;
7519;SDS011;3801;48.876;10.184;2022-08-19T00:14:09;16.07;;;12.90;;
7519;SDS011;3801;48.876;10.184;2022-08-19T00:19:15;18.07;;;14.20;;
7519;SDS011;3801;48.876;10.184;2022-08-19T00:24:18;20.70;;;14.13;;
7519;SDS011;3801;48.876;10.184;2022-08-19T00:29:22;18.83;;;14.33;;
7519;SDS011;3801;48.876;10.184;2022-08-19T00:34:27;18.23;;;14.60;;
7519;SDS011;3801;48.876;10.184;2022-08-19T00:39:31;19.63;;;14.23;;
7519;SDS011;3801;48.876;10.184;2022-08-19T00:44:34;19.27;;;14.03;;
7519;SDS011;3801;48.876;10.184;2022-08-19T00:49:40;19.30;;;14.53;;
7519;SDS011;3801;48.876;10.184;2022-08-19T00:54:44;22.50;;;15.43;;
7519;SDS011;3801;48.876;10.184;2022-08-19T00:59:54;21.30;;;15.07;;
7519;SDS011;3801;48.876;10.184;2022-08-19T01:05:06;20.27;;;15.20;;
7519;SDS011;3801;48.876;10.184;2022-08-19T01:10:12;22.30;;;16.07;;
7519;SDS011;3801;48.876;10.184;2022-08-19T01:15:16;24.13;;;16.57;;
7519;SDS011;3801;48.876;10.184;2022-08-19T01:20:22;21.50;;;15.80;;
7519;SDS011;3801;48.876;10.184;2022-08-19T01:25:29;22.47;;;16.50;;
7519;SDS011;3801;48.876;10.184;2022-08-19T01:30:34;24.67;;;16.87;;
7519;SDS011;3801;48.876;10.184;2022-08-19T01:35:38;24.67;;;16.77;;
7519;SDS011;3801;48.876;10.184;2022-08-19T01:40:43;22.30;;;16.53;;
7519;SDS011;3801;48.876;10.184;2022-08-19T01:45:46;24.30;;;17.03;;
7519;SDS011;3801;48.876;10.184;2022-08-19T01:50:50;25.53;;;18.37;;
7519;SDS011;3801;48.876;10.184;2022-08-19T01:55:55;24.57;;;17.57;;
7519;SDS011;3801;48.876;10.184;2022-08-19T02:00:58;26.13;;;18.17;;
7519;SDS011;3801;48.876;10.184;2022-08-19T02:06:02;21.93;;;17.10;;
7519;SDS011;3801;48.876;10.184;2022-08-19T02:11:08;26.97;;;17.83;;
7519;SDS011;3801;48.876;10.184;2022-08-19T02:16:11;23.53;;;17.23;;
7519;SDS011;3801;48.876;10.184;2022-08-19T02:21:15;27.57;;;18.43;;
7519;SDS011;3801;48.876;10.184;2022-08-19T02:26:20;27.00;;;18.33;;
7519;SDS011;3801;48.876;10.184;2022-08-19T02:31:24;25.37;;;17.57;;
7519;SDS011;3801;48.876;10.184;2022-08-19T02:36:29;27.80;;;18.67;;
7519;SDS011;3801;48.876;10.184;2022-08-19T02:41:35;26.17;;;18.10;;
7519;SDS011;3801;48.876;10.184;2022-08-19T02:46:38;28.60;;;18.90;;
7519;SDS011;3801;48.876;10.184;2022-08-19T02:51:43;25.63;;;18.00;;
7519;SDS011;3801;48.876;10.184;2022-08-19T02:56:48;30.13;;;18.97;;
7519;SDS011;3801;48.876;10.184;2022-08-19T03:01:52;27.97;;;18.63;;
7519;SDS011;3801;48.876;10.184;2022-08-19T03:06:55;27.40;;;17.37;;
7519;SDS011;3801;48.876;10.184;2022-08-19T03:12:13;28.00;;;19.00;;
7519;SDS011;3801;48.876;10.184;2022-08-19T03:17:16;29.53;;;18.83;;
7519;SDS011;3801;48.876;10.184;2022-08-19T03:22:19;27.10;;;19.13;;
7519;SDS011;3801;48.876;10.184;2022-08-19T03:27:25;26.87;;;18.10;;
7519;SDS011;3801;48.876;10.184;2022-08-19T03:32:35;26.37;;;18.60;;
7519;SDS011;3801;48.876;10.184;2022-08-19T03:37:46;26.53;;;18.17;;
7519;SDS011;3801;48.876;10.184;2022-08-19T03:42:51;24.17;;;17.57;;
7519;SDS011;3801;48.876;10.184;2022-08-19T03:47:57;22.67;;;16.87;;
7519;SDS011;3801;48.876;10.184;2022-08-19T03:53:01;24.30;;;18.10;;
7519;SDS011;3801;48.876;10.184;2022-08-19T03:58:05;23.93;;;16.83;;
7519;SDS011;3801;48.876;10.184;2022-08-19T04:03:09;27.30;;;18.63;;
7519;SDS011;3801;48.876;10.184;2022-08-19T04:08:13;28.63;;;17.87;;
7519;SDS011;3801;48.876;10.184;2022-08-19T04:13:18;27.00;;;17.80;;
7519;SDS011;3801;48.876;10.184;2022-08-19T04:18:21;27.57;;;18.83;;
7519;SDS011;3801;48.876;10.184;2022-08-19T04:23:25;25.83;;;16.73;;
7519;SDS011;3801;48.876;10.184;2022-08-19T04:28:31;27.00;;;18.57;;
7519;SDS011;3801;48.876;10.184;2022-08-19T04:33:35;27.00;;;17.57;;
7519;SDS011;3801;48.876;10.184;2022-08-19T04:38:38;30.67;;;19.07;;
7519;SDS011;3801;48.876;10.184;2022-08-19T04:43:44;24.40;;;16.80;;
7519;SDS011;3801;48.876;10.184;2022-08-19T04:48:49;29.20;;;19.47;;
7519;SDS011;3801;48.876;10.184;2022-08-19T04:53:52;26.20;;;18.57;;
7519;SDS011;3801;48.876;10.184;2022-08-19T04:59:00;29.63;;;18.87;;
7519;SDS011;3801;48.876;10.184;2022-08-19T05:04:06;26.97;;;17.57;;
7519;SDS011;3801;48.876;10.184;2022-08-19T05:09:09;28.83;;;19.03;;
7519;SDS011;3801;48.876;10.184;2022-08-19T05:14:14;29.87;;;20.30;;
7519;SDS011;3801;48.876;10.184;2022-08-19T05:19:18;28.27;;;18.63;;
7519;SDS011;3801;48.876;10.184;2022-08-19T05:24:44;29.77;;;18.63;;
7519;SDS011;3801;48.876;10.184;2022-08-19T05:30:12;30.60;;;19.30;;
7519;SDS011;3801;48.876;10.184;2022-08-19T05:35:17;29.03;;;17.70;;
7519;SDS011;3801;48.876;10.184;2022-08-19T05:40:20;29.13;;;18.77;;
7519;SDS011;3801;48.876;10.184;2022-08-19T05:45:29;28.47;;;18.67;;
7519;SDS011;3801;48.876;10.184;2022-08-19T05:50:32;27.27;;;17.77;;
7519;SDS011;3801;48.876;10.184;2022-08-19T05:55:36;29.17;;;18.80;;
7519;SDS011;3801;48.876;10.184;2022-08-19T06:00:43;27.33;;;18.43;;
7519;SDS011;3801;48.876;10.184;2022-08-19T06:05:46;27.43;;;18.20;;
7519;SDS011;3801;48.876;10.184;2022-08-19T06:10:53;28.80;;;18.90;;
7519;SDS011;3801;48.876;10.184;2022-08-19T06:15:58;30.70;;;19.10;;
7519;SDS011;3801;48.876;10.184;2022-08-19T06:21:01;27.67;;;17.73;;
7519;SDS011;3801;48.876;10.184;2022-08-19T06:26:07;26.60;;;17.77;;
7519;SDS011;3801;48.876;10.184;2022-08-19T06:31:16;26.53;;;17.90;;
7519;SDS011;3801;48.876;10.184;2022-08-19T06:36:20;28.47;;;18.73;;
7519;SDS011;3801;48.876;10.184;2022-08-19T06:41:28;25.70;;;18.20;;
7519;SDS011;3801;48.876;10.184;2022-08-19T06:46:33;26.53;;;17.50;;
7519;SDS011;3801;48.876;10.184;2022-08-19T06:51:36;27.13;;;17.63;;
7519;SDS011;3801;48.876;10.184;2022-08-19T06:56:44;28.13;;;19.13;;
7519;SDS011;3801;48.876;10.184;2022-08-19T07:01:49;28.80;;;19.50;;
7519;SDS011;3801;48.876;10.184;2022-08-19T07:06:56;32.87;;;19.80;;
7519;SDS011;3801;48.876;10.184;2022-08-19T07:12:15;28.33;;;18.33;;
7519;SDS011;3801;48.876;10.184;2022-08-19T07:17:25;22.37;;;16.73;;
7519;SDS011;3801;48.876;10.184;2022-08-19T07:22:28;26.80;;;18.07;;
7519;SDS011;3801;48.876;10.184;2022-08-19T07:27:32;29.37;;;18.03;;
7519;SDS011;3801;48.876;10.184;2022-08-19T07:32:37;28.30;;;18.27;;
7519;SDS011;3801;48.876;10.184;2022-08-19T07:37:40;29.17;;;19.50;;
7519;SDS011;3801;48.876;10.184;2022-08-19T07:42:46;29.37;;;18.23;;
7519;SDS011;3801;48.876;10.184;2022-08-19T07:47:50;27.20;;;17.47;;
7519;SDS011;3801;48.876;10.184;2022-08-19T07:52:54;29.17;;;18.20;;
7519;SDS011;3801;48.876;10.184;2022-08-19T07:57:58;25.53;;;17.83;;
7519;SDS011;3801;48.876;10.184;2022-08-19T08:03:05;28.27;;;18.90;;
7519;SDS011;3801;48.876;10.184;2022-08-19T08:08:10;28.77;;;18.67;;
7519;SDS011;3801;48.876;10.184;2022-08-19T08:13:46;25.10;;;16.90;;
7519;SDS011;3801;48.876;10.184;2022-08-19T08:19:04;27.63;;;18.07;;
7519;SDS011;3801;48.876;10.184;2022-08-19T08:24:26;26.13;;;17.57;;
7519;SDS011;3801;48.876;10.184;2022-08-19T08:29:32;31.83;;;19.27;;
7519;SDS011;3801;48.876;10.184;2022-08-19T08:34:37;25.43;;;17.87;;
7519;SDS011;3801;48.876;10.184;2022-08-19T08:39:41;26.67;;;17.77;;
7519;SDS011;3801;48.876;10.184;2022-08-19T08:44:47;26.20;;;18.87;;
7519;SDS011;3801;48.876;10.184;2022-08-19T08:49:55;26.43;;;18.70;;
7519;SDS011;3801;48.876;10.184;2022-08-19T08:55:03;25.67;;;18.50;;
7519;SDS011;3801;48.876;10.184;2022-08-19T09:00:12;32.93;;;18.50;;
7519;SDS011;3801;48.876;10.184;2022-08-19T09:05:20;30.90;;;19.50;;
7519;SDS011;3801;48.876;10.184;2022-08-19T09:10:28;27.60;;;18.47;;
7519;SDS011;3801;48.876;10.184;2022-08-19T09:15:34;30.33;;;19.43;;
7519;SDS011;3801;48.876;10.184;2022-08-19T09:20:41;26.53;;;18.63;;
7519;SDS011;3801;48.876;10.184;2022-08-19T09:25:45;28.80;;;18.37;;
7519;SDS011;3801;48.876;10.184;2022-08-19T09:30:48;27.33;;;18.30;;
7519;SDS011;3801;48.876;10.184;2022-08-19T09:36:02;27.33;;;18.77;;
7519;SDS011;3801;48.876;10.184;2022-08-19T09:41:10;25.23;;;17.07;;
7519;SDS011;3801;48.876;10.184;2022-08-19T09:46:16;24.30;;;16.70;;
7519;SDS011;3801;48.876;10.184;2022-08-19T09:51:22;25.13;;;17.53;;
7519;SDS011;3801;48.876;10.184;2022-08-19T09:56:26;29.17;;;19.10;;
7519;SDS011;3801;48.876;10.184;2022-08-19T10:01:30;28.27;;;17.47;;
7519;SDS011;3801;48.876;10.184;2022-08-19T10:06:36;25.83;;;17.57;;
7519;SDS011;3801;48.876;10.184;2022-08-19T10:11:47;26.40;;;17.70;;
7519;SDS011;3801;48.876;10.184;2022-08-19T10:16:55;26.93;;;18.20;;
7519;SDS011;3801;48.876;10.184;2022-08-19T10:22:03;27.83;;;18.27;;
7519;SDS011;3801;48.876;10.184;2022-08-19T10:27:13;31.57;;;19.27;;
7519;SDS011;3801;48.876;10.184;2022-08-19T10:32:16;24.87;;;16.00;;
7519;SDS011;3801;48.876;10.184;2022-08-19T10:37:37;22.37;;;16.07;;
7519;SDS011;3801;48.876;10.184;2022-08-19T10:42:58;24.53;;;16.27;;
7519;SDS011;3801;48.876;10.184;2022-08-19T10:48:02;23.93;;;15.90;;
7519;SDS011;3801;48.876;10.184;2022-08-19T10:53:07;19.13;;;14.00;;
7519;SDS011;3801;48.876;10.184;2022-08-19T10:58:11;18.90;;;14.37;;
7519;SDS011;3801;48.876;10.184;2022-08-19T11:03:15;21.13;;;15.17;;
7519;SDS011;3801;48.876;10.184;2022-08-19T11:08:20;23.23;;;17.60;;
7519;SDS011;3801;48.876;10.184;2022-08-19T11:13:24;25.70;;;17.10;;
7519;SDS011;3801;48.876;10.184;2022-08-19T11:18:28;31.37;;;19.43;;
7519;SDS011;3801;48.876;10.184;2022-08-19T11:23:33;29.47;;;18.87;;
7519;SDS011;3801;48.876;10.184;2022-08-19T11:28:37;32.27;;;21.13;;
7519;SDS011;3801;48.876;10.184;2022-08-19T11:33:40;29.73;;;19.53;;
7519;SDS011;3801;48.876;10.184;2022-08-19T11:38:50;34.87;;;22.27;;
7519;SDS011;3801;48.876;10.184;2022-08-19T11:43:54;31.00;;;20.50;;
7519;SDS011;3801;48.876;10.184;2022-08-19T11:48:58;33.20;;;21.27;;
7519;SDS011;3801;48.876;10.184;2022-08-19T11:54:04;33.83;;;22.23;;
7519;SDS011;3801;48.876;10.184;2022-08-19T11:59:08;32.43;;;21.63;;
7519;SDS011;3801;48.876;10.184;2022-08-19T12:04:15;28.37;;;17.77;;
7519;SDS011;3801;48.876;10.184;2022-08-19T12:09:22;24.93;;;17.50;;
7519;SDS011;3801;48.876;10.184;2022-08-19T12:14:26;23.03;;;16.13;;
7519;SDS011;3801;48.876;10.184;2022-08-19T12:19:32;24.17;;;16.37;;
7519;SDS011;3801;48.876;10.184;2022-08-19T12:24:37;26.37;;;17.27;;
7519;SDS011;3801;48.876;10.184;2022-08-19T12:29:40;25.27;;;18.33;;
7519;SDS011;3801;48.876;10.184;2022-08-19T12:34:44;24.50;;;16.57;;
7519;SDS011;3801;48.876;10.184;2022-08-19T12:39:50;25.90;;;18.07;;
7519;SDS011;3801;48.876;10.184;2022-08-19T12:44:54;28.40;;;19.57;;
7519;SDS011;3801;48.876;10.184;2022-08-19T12:49:57;28.23;;;19.50;;
7519;SDS011;3801;48.876;10.184;2022-08-19T12:55:05;28.90;;;19.33;;
7519;SDS011;3801;48.876;10.184;2022-08-19T13:00:10;23.80;;;16.97;;
7519;SDS011;3801;48.876;10.184;2022-08-19T13:05:15;19.33;;;12.77;;
7519;SDS011;3801;48.876;10.184;2022-08-19T13:10:20;17.93;;;12.73;;
7519;SDS011;3801;48.876;10.184;2022-08-19T13:15:24;18.67;;;12.87;;
7519;SDS011;3801;48.876;10.184;2022-08-19T13:20:27;14.40;;;10.00;;
7519;SDS011;3801;48.876;10.184;2022-08-19T13:25:32;11.17;;;8.00;;
7519;SDS011;3801;48.876;10.184;2022-08-19T13:30:37;12.73;;;9.90;;
7519;SDS011;3801;48.876;10.184;2022-08-19T13:35:58;18.20;;;12.03;;
7519;SDS011;3801;48.876;10.184;2022-08-19T13:41:05;17.03;;;12.50;;
7519;SDS011;3801;48.876;10.184;2022-08-19T13:46:15;17.13;;;12.43;;
7519;SDS011;3801;48.876;10.184;2022-08-19T13:51:19;15.03;;;10.87;;
7519;SDS011;3801;48.876;10.184;2022-08-19T13:56:23;16.70;;;13.07;;
7519;SDS011;3801;48.876;10.184;2022-08-19T14:01:27;20.17;;;14.03;;
7519;SDS011;3801;48.876;10.184;2022-08-19T14:06:32;15.53;;;12.37;;
7519;SDS011;3801;48.876;10.184;2022-08-19T14:11:37;19.27;;;13.27;;
7519;SDS011;3801;48.876;10.184;2022-08-19T14:16:41;22.20;;;14.03;;
7519;SDS011;3801;48.876;10.184;2022-08-19T14:21:44;22.23;;;13.50;;
7519;SDS011;3801;48.876;10.184;2022-08-19T14:26:49;23.10;;;14.17;;
7519;SDS011;3801;48.876;10.184;2022-08-19T14:31:52;22.93;;;14.90;;
7519;SDS011;3801;48.876;10.184;2022-08-19T14:36:56;22.20;;;15.70;;
7519;SDS011;3801;48.876;10.184;2022-08-19T14:42:07;20.67;;;15.33;;
7519;SDS011;3801;48.876;10.184;2022-08-19T14:47:12;26.77;;;17.27;;
7519;SDS011;3801;48.876;10.184;2022-08-19T14:52:16;19.80;;;14.37;;
7519;SDS011;3801;48.876;10.184;2022-08-19T14:57:21;22.77;;;15.13;;
7519;SDS011;3801;48.876;10.184;2022-08-19T15:02:24;20.53;;;13.93;;
7519;SDS011;3801;48.876;10.184;2022-08-19T15:07:36;18.10;;;13.80;;
7519;SDS011;3801;48.876;10.184;2022-08-19T15:12:41;22.50;;;13.87;;
7519;SDS011;3801;48.876;10.184;2022-08-19T15:17:50;21.27;;;14.13;;
7519;SDS011;3801;48.876;10.184;2022-08-19T15:22:54;18.43;;;13.20;;
7519;SDS011;3801;48.876;10.184;2022-08-19T15:27:59;19.50;;;13.67;;
7519;SDS011;3801;48.876;10.184;2022-08-19T15:33:03;17.17;;;13.07;;
7519;SDS011;3801;48.876;10.184;2022-08-19T15:38:06;17.37;;;12.83;;
7519;SDS011;3801;48.876;10.184;2022-08-19T15:43:11;15.37;;;12.30;;
7519;SDS011;3801;48.876;10.184;2022-08-19T15:48:15;18.67;;;11.93;;
7519;SDS011;3801;48.876;10.184;2022-08-19T15:53:18;16.67;;;11.83;;
7519;SDS011;3801;48.876;10.184;2022-08-19T15:58:23;16.67;;;11.30;;
7519;SDS011;3801;48.876;10.184;2022-08-19T16:03:44;15.10;;;10.60;;
7519;SDS011;3801;48.876;10.184;2022-08-19T16:09:05;12.37;;;9.67;;
7519;SDS011;3801;48.876;10.184;2022-08-19T16:14:10;17.80;;;11.80;;
7519;SDS011;3801;48.876;10.184;2022-08-19T16:19:14;13.87;;;11.27;;
7519;SDS011;3801;48.876;10.184;2022-08-19T16:24:19;14.50;;;11.80;;
7519;SDS011;3801;48.876;10.184;2022-08-19T16:29:26;15.93;;;11.80;;
7519;SDS011;3801;48.876;10.184;2022-08-19T16:34:40;16.57;;;12.00;;
7519;SDS011;3801;48.876;10.184;2022-08-19T16:39:43;15.37;;;11.93;;
7519;SDS011;3801;48.876;10.184;2022-08-19T16:44:48;16.40;;;11.20;;
7519;SDS011;3801;48.876;10.184;2022-08-19T16:49:52;12.90;;;10.10;;
7519;SDS011;3801;48.876;10.184;2022-08-19T16:54:56;20.17;;;11.17;;
7519;SDS011;3801;48.876;10.184;2022-08-19T17:00:02;11.27;;;9.50;;
7519;SDS011;3801;48.876;10.184;2022-08-19T17:05:09;13.30;;;10.10;;
7519;SDS011;3801;48.876;10.184;2022-08-19T17:10:13;15.03;;;10.80;;
7519;SDS011;3801;48.876;10.184;2022-08-19T17:15:18;14.03;;;10.33;;
7519;SDS011;3801;48.876;10.184;2022-08-19T17:20:21;20.67;;;12.33;;
7519;SDS011;3801;48.876;10.184;2022-08-19T17:25:26;17.20;;;12.23;;
7519;SDS011;3801;48.876;10.184;2022-08-19T17:30:33;14.67;;;10.47;;
7519;SDS011;3801;48.876;10.184;2022-08-19T17:35:37;16.47;;;11.37;;
7519;SDS011;3801;48.876;10.184;2022-08-19T17:40:44;16.20;;;12.37;;
7519;SDS011;3801;48.876;10.184;2022-08-19T17:45:50;17.40;;;11.50;;
7519;SDS011;3801;48.876;10.184;2022-08-19T17:50:53;20.83;;;12.33;;
7519;SDS011;3801;48.876;10.184;2022-08-19T17:55:59;18.03;;;12.53;;
7519;SDS011;3801;48.876;10.184;2022-08-19T18:01:04;18.47;;;13.00;;
7519;SDS011;3801;48.876;10.184;2022-08-19T18:06:12;18.27;;;13.23;;
7519;SDS011;3801;48.876;10.184;2022-08-19T18:11:16;22.20;;;13.93;;
7519;SDS011;3801;48.876;10.184;2022-08-19T18:16:22;19.30;;;14.07;;
7519;SDS011;3801;48.876;10.184;2022-08-19T18:21:26;19.57;;;13.73;;
7519;SDS011;3801;48.876;10.184;2022-08-19T18:26:32;24.03;;;14.60;;
7519;SDS011;3801;48.876;10.184;2022-08-19T18:31:37;18.73;;;13.30;;
7519;SDS011;3801;48.876;10.184;2022-08-19T18:36:41;17.70;;;12.13;;
7519;SDS011;3801;48.876;10.184;2022-08-19T18:41:55;20.00;;;13.57;;
7519;SDS011;3801;48.876;10.184;2022-08-19T18:47:17;18.10;;;12.73;;
7519;SDS011;3801;48.876;10.184;2022-08-19T18:52:40;15.37;;;12.43;;
7519;SDS011;3801;48.876;10.184;2022-08-19T18:57:43;18.00;;;12.77;;
7519;SDS011;3801;48.876;10.184;2022-08-19T19:02:48;17.10;;;12.47;;
7519;SDS011;3801;48.876;10.184;2022-08-19T19:07:52;15.00;;;11.23;;
7519;SDS011;3801;48.876;10.184;2022-08-19T19:12:55;15.30;;;10.47;;
7519;SDS011;3801;48.876;10.184;2022-08-19T19:18:01;15.77;;;10.60;;
7519;SDS011;3801;48.876;10.184;2022-08-19T19:23:05;15.87;;;10.27;;
7519;SDS011;3801;48.876;10.184;2022-08-19T19:28:08;13.73;;;11.07;;
7519;SDS011;3801;48.876;10.184;2022-08-19T19:33:18;13.97;;;10.87;;
7519;SDS011;3801;48.876;10.184;2022-08-19T19:38:21;16.87;;;11.30;;
7519;SDS011;3801;48.876;10.184;2022-08-19T19:43:25;16.10;;;11.93;;
7519;SDS011;3801;48.876;10.184;2022-08-19T19:48:37;18.03;;;12.73;;
7519;SDS011;3801;48.876;10.184;2022-08-19T19:53:40;15.03;;;11.87;;
7519;SDS011;3801;48.876;10.184;2022-08-19T19:58:44;17.73;;;13.00;;
7519;SDS011;3801;48.876;10.184;2022-08-19T20:03:50;14.93;;;11.93;;
7519;SDS011;3801;48.876;10.184;2022-08-19T20:08:54;17.10;;;12.77;;
7519;SDS011;3801;48.876;10.184;2022-08-19T20:14:12;16.03;;;12.27;;
7519;SDS011;3801;48.876;10.184;2022-08-19T20:19:18;15.53;;;12.77;;
7519;SDS011;3801;48.876;10.184;2022-08-19T20:24:23;16.80;;;12.90;;
7519;SDS011;3801;48.876;10.184;2022-08-19T20:29:28;17.97;;;14.23;;
7519;SDS011;3801;48.876;10.184;2022-08-19T20:34:43;18.13;;;14.07;;
7519;SDS011;3801;48.876;10.184;2022-08-19T20:39:50;20.47;;;14.20;;
7519;SDS011;3801;48.876;10.184;2022-08-19T20:44:53;20.70;;;15.37;;
7519;SDS011;3801;48.876;10.184;2022-08-19T20:49:59;23.40;;;17.10;;
7519;SDS011;3801;48.876;10.184;2022-08-19T20:55:03;23.17;;;17.83;;
7519;SDS011;3801;48.876;10.184;2022-08-19T21:00:07;23.60;;;17.67;;
7519;SDS011;3801;48.876;10.184;2022-08-19T21:05:13;23.20;;;18.00;;
7519;SDS011;3801;48.876;10.184;2022-08-19T21:10:17;23.87;;;16.17;;
7519;SDS011;3801;48.876;10.184;2022-08-19T21:15:20;23.13;;;15.77;;
7519;SDS011;3801;48.876;10.184;2022-08-19T21:20:26;23.57;;;16.97;;
7519;SDS011;3801;48.876;10.184;2022-08-19T21:25:30;24.10;;;17.47;;
7519;SDS011;3801;48.876;10.184;2022-08-19T21:30:33;26.17;;;18.23;;
7519;SDS011;3801;48.876;10.184;2022-08-19T21:35:38;25.00;;;17.10;;
7519;SDS011;3801;48.876;10.184;2022-08-19T21:40:42;22.83;;;17.03;;
7519;SDS011;3801;48.876;10.184;2022-08-19T21:45:45;25.43;;;17.87;;
7519;SDS011;3801;48.876;10.184;2022-08-19T21:50:50;25.57;;;17.87;;
7519;SDS011;3801;48.876;10.184;2022-08-19T21:55:54;23.83;;;17.60;;
7519;SDS011;3801;48.876;10.184;2022-08-19T22:00:57;23.83;;;17.53;;
7519;SDS011;3801;48.876;10.184;2022-08-19T22:06:02;19.57;;;15.50;;
7519;SDS011;3801;48.876;10.184;2022-08-19T22:11:06;17.73;;;14.67;;
7519;SDS011;3801;48.876;10.184;2022-08-19T22:16:12;18.73;;;15.57;;
7519;SDS011;3801;48.876;10.184;2022-08-19T22:21:20;21.07;;;16.30;;
7519;SDS011;3801;48.876;10.184;2022-08-19T22:26:41;19.13;;;14.33;;
7519;SDS011;3801;48.876;10.184;2022-08-19T22:31:45;17.10;;;13.87;;
7519;SDS011;3801;48.876;10.184;2022-08-19T22:37:00;17.17;;;13.40;;
7519;SDS011;3801;48.876;10.184;2022-08-19T22:42:04;16.23;;;12.37;;
7519;SDS011;3801;48.876;10.184;2022-08-19T22:47:07;16.23;;;11.63;;
7519;SDS011;3801;48.876;10.184;2022-08-19T22:52:12;14.63;;;11.33;;
7519;SDS011;3801;48.876;10.184;2022-08-19T22:57:19;13.40;;;10.27;;
7519;SDS011;3801;48.876;10.184;2022-08-19T23:02:24;13.93;;;9.93;;
7519;SDS011;3801;48.876;10.184;2022-08-19T23:07:29;18.17;;;11.87;;
7519;SDS011;3801;48.876;10.184;2022-08-19T23:12:33;14.57;;;10.07;;
7519;SDS011;3801;48.876;10.184;2022-08-19T23:17:38;14.30;;;10.53;;
7519;SDS011;3801;48.876;10.184;2022-08-19T23:22:44;12.83;;;10.37;;
7519;SDS011;3801;48.876;10.184;2022-08-19T23:27:48;9.47;;;8.00;;
7519;SDS011;3801;48.876;10.184;2022-08-19T23:33:12;18.73;;;9.70;;
7519;SDS011;3801;48.876;10.184;2022-08-19T23:38:17;13.10;;;8.70;;
7519;SDS011;3801;48.876;10.184;2022-08-19T23:43:23;13.37;;;9.13;;
7519;SDS011;3801;48.876;10.184;2022-08-19T23:48:31;13.80;;;9.50;;
7519;SDS011;3801;48.876;10.184;2022-08-19T23:53:36;14.27;;;10.43;;
7519;SDS011;3801;48.876;10.184;2022-08-19T23:58:40;17.73;;;10.33;;
